Time;durP1;ratioP1;P1;durP2;ratioP2;P2;SDS_P1;SDS_P2;PMS_P1;PMS_P2;Temp;Humidity;BMP_temperature;BMP_pressure;BME280_temperature;BME280_humidity;BME280_pressure;Samples;Min_cycle;Max_cycle;Signal;HPM_P1;HPM_P2
2023/09/19 00:01:53;;;;;;;0.50;0.50;;;;;15.30;95692.00;;;;5053085;28;20203;-58
2023/09/19 00:04:28;;;;;;;0.60;0.60;;;;;15.40;95701.00;;;;5052933;28;20569;-58
2023/09/19 00:06:56;;;;;;;0.50;0.50;;;;;15.40;95701.00;;;;5053302;28;20600;-58
2023/09/19 00:09:26;;;;;;;0.50;0.50;;;;;15.30;95690.00;;;;5053226;28;20215;-58
2023/09/19 00:11:53;;;;;;;0.43;0.43;;;;;15.30;95692.00;;;;5052941;28;20200;-58
2023/09/19 00:14:24;;;;;;;0.50;0.50;;;;;15.30;95692.00;;;;5052786;28;20223;-58
2023/09/19 00:16:51;;;;;;;0.50;0.50;;;;;15.30;95696.00;;;;5052957;28;20729;-59
2023/09/19 00:19:19;;;;;;;0.60;0.60;;;;;15.40;95704.00;;;;5052866;28;20195;-59
2023/09/19 00:21:47;;;;;;;0.60;0.60;;;;;15.50;95697.00;;;;5052764;28;20192;-59
2023/09/19 00:24:17;;;;;;;0.50;0.50;;;;;15.20;95703.00;;;;5052653;28;20212;-59
2023/09/19 00:26:47;;;;;;;0.60;0.60;;;;;15.20;95702.00;;;;5052643;28;20671;-59
2023/09/19 00:29:16;;;;;;;0.47;0.47;;;;;15.20;95708.00;;;;5052706;28;20239;-58
2023/09/19 00:31:45;;;;;;;0.50;0.50;;;;;15.20;95693.00;;;;5052622;28;20196;-58
2023/09/19 00:34:12;;;;;;;0.60;0.60;;;;;15.30;95699.00;;;;5052980;28;20239;-58
2023/09/19 00:36:39;;;;;;;0.50;0.50;;;;;15.20;95704.00;;;;5056596;28;20199;-58
2023/09/19 00:39:09;;;;;;;0.63;0.63;;;;;15.20;95700.00;;;;5056899;28;20207;-58
2023/09/19 00:41:36;;;;;;;0.93;0.93;;;;;15.20;95711.00;;;;5056545;28;20558;-58
2023/09/19 00:44:04;;;;;;;0.67;0.67;;;;;15.30;95702.00;;;;5056916;28;20203;-58
2023/09/19 00:46:33;;;;;;;0.73;0.70;;;;;15.10;95708.00;;;;5056505;28;20204;-59
2023/09/19 00:49:01;;;;;;;0.50;0.50;;;;;15.00;95708.00;;;;5056455;28;20223;-58
2023/09/19 00:51:29;;;;;;;0.60;0.60;;;;;15.00;95717.00;;;;5056507;28;20196;-58
2023/09/19 00:53:59;;;;;;;0.87;0.87;;;;;15.10;95719.00;;;;5056145;28;20277;-58
2023/09/19 00:56:28;;;;;;;0.60;0.60;;;;;15.20;95720.00;;;;5056401;28;20203;-58
2023/09/19 00:58:57;;;;;;;0.57;0.57;;;;;15.10;95721.00;;;;5056606;28;20198;-58
2023/09/19 01:01:25;;;;;;;0.50;0.50;;;;;15.20;95721.00;;;;5056209;28;20199;-58
2023/09/19 01:03:53;;;;;;;0.70;0.70;;;;;15.20;95716.00;;;;5056146;28;20199;-58
2023/09/19 01:06:21;;;;;;;0.50;0.50;;;;;15.10;95711.00;;;;5056570;28;20197;-59
2023/09/19 01:08:48;;;;;;;0.60;0.60;;;;;15.10;95729.00;;;;5055962;28;20188;-58
2023/09/19 01:11:24;;;;;;;0.50;0.50;;;;;15.10;95724.00;;;;5055962;28;20232;-58
2023/09/19 01:13:58;;;;;;;2.67;1.00;;;;;15.20;95719.00;;;;5056979;28;20259;-58
2023/09/19 01:16:39;;;;;;;0.50;0.50;;;;;15.10;95728.00;;;;5057602;28;20184;-58
2023/09/19 01:19:34;;;;;;;0.60;0.60;;;;;15.10;95732.00;;;;5056112;28;20254;-58
2023/09/19 01:22:08;;;;;;;1.47;0.67;;;;;15.20;95733.00;;;;5056135;28;20208;-59
2023/09/19 01:25:03;;;;;;;0.40;0.40;;;;;15.10;95737.00;;;;5056201;28;20247;-59
2023/09/19 01:28:00;;;;;;;0.70;0.70;;;;;15.20;95729.00;;;;5056356;28;20628;-59
2023/09/19 01:30:32;;;;;;;1.07;1.07;;;;;15.20;95739.00;;;;5056258;28;20204;-59
2023/09/19 01:33:00;;;;;;;0.70;0.70;;;;;15.20;95738.00;;;;5068558;28;20199;-59
2023/09/19 01:35:28;;;;;;;0.50;0.50;;;;;15.10;95746.00;;;;5072070;28;20216;-58
2023/09/19 01:37:55;;;;;;;0.50;0.50;;;;;15.20;95750.00;;;;5055816;28;20192;-57
2023/09/19 01:40:24;;;;;;;0.50;0.50;;;;;15.30;95747.00;;;;5055895;28;20196;-57
2023/09/19 01:42:59;;;;;;;0.40;0.40;;;;;15.20;95742.00;;;;5055783;28;20198;-58
2023/09/19 01:45:37;;;;;;;0.47;0.47;;;;;15.30;95747.00;;;;5055226;28;20239;-57
2023/09/19 01:48:20;;;;;;;0.60;0.60;;;;;15.20;95746.00;;;;5055749;28;20195;-58
2023/09/19 01:50:56;;;;;;;0.50;0.50;;;;;15.00;95748.00;;;;5055270;28;20203;-57
2023/09/19 01:53:28;;;;;;;0.50;0.50;;;;;15.00;95747.00;;;;5056474;28;20525;-58
2023/09/19 01:55:56;;;;;;;0.60;0.60;;;;;14.80;95758.00;;;;5057067;28;20212;-57
2023/09/19 01:58:30;;;;;;;1.23;1.13;;;;;15.00;95747.00;;;;5056931;28;20222;-58
2023/09/19 02:01:01;;;;;;;1.40;1.03;;;;;14.70;95758.00;;;;5055879;28;20187;-58
2023/09/19 02:03:29;;;;;;;0.50;0.50;;;;;14.70;95758.00;;;;5055510;28;20632;-58
2023/09/19 02:05:57;;;;;;;0.50;0.50;;;;;14.60;95761.00;;;;5055146;28;20211;-57
2023/09/19 02:08:24;;;;;;;4.23;1.07;;;;;14.50;95758.00;;;;5055104;28;20677;-57
2023/09/19 02:10:52;;;;;;;0.70;0.70;;;;;14.50;95750.00;;;;5054953;28;20223;-58
2023/09/19 02:13:21;;;;;;;0.60;0.60;;;;;14.60;95760.00;;;;5054871;28;20279;-57
2023/09/19 02:15:48;;;;;;;0.60;0.60;;;;;14.50;95753.00;;;;5054731;28;20576;-57
2023/09/19 02:18:18;;;;;;;2.73;0.93;;;;;14.50;95754.00;;;;5054949;28;20188;-57
2023/09/19 02:20:46;;;;;;;0.40;0.40;;;;;14.60;95754.00;;;;5054989;28;20192;-58
2023/09/19 02:23:15;;;;;;;0.50;0.50;;;;;14.70;95761.00;;;;5054641;28;20221;-58
2023/09/19 02:25:43;;;;;;;0.50;0.50;;;;;14.80;95759.00;;;;5054450;28;20220;-58
2023/09/19 02:28:11;;;;;;;0.50;0.50;;;;;15.00;95757.00;;;;5054736;28;20203;-58
2023/09/19 02:30:39;;;;;;;0.70;0.70;;;;;15.00;95757.00;;;;5054588;28;20281;-58
2023/09/19 02:33:06;;;;;;;0.50;0.50;;;;;14.90;95762.00;;;;5055081;28;20562;-57
2023/09/19 02:35:36;;;;;;;0.50;0.50;;;;;14.90;95769.00;;;;5054343;28;20632;-58
2023/09/19 02:38:06;;;;;;;0.70;0.70;;;;;14.90;95759.00;;;;5054291;28;20200;-57
2023/09/19 02:40:35;;;;;;;0.60;0.60;;;;;14.90;95773.00;;;;5054657;28;20712;-57
2023/09/19 02:43:03;;;;;;;0.50;0.50;;;;;14.90;95770.00;;;;5054483;28;20278;-58
2023/09/19 02:45:30;;;;;;;0.67;0.67;;;;;15.00;95767.00;;;;5055033;28;20266;-58
2023/09/19 02:47:59;;;;;;;0.60;0.60;;;;;15.00;95772.00;;;;5054553;28;20196;-57
2023/09/19 02:50:26;;;;;;;0.50;0.50;;;;;15.10;95776.00;;;;5054848;28;20687;-57
2023/09/19 02:52:55;;;;;;;0.60;0.60;;;;;15.10;95781.00;;;;5054759;28;20195;-58
2023/09/19 02:55:23;;;;;;;0.53;0.53;;;;;15.20;95777.00;;;;5037300;28;20236;-58
2023/09/19 02:57:52;;;;;;;0.57;0.57;;;;;15.10;95771.00;;;;5054077;28;20188;-57
2023/09/19 03:00:21;;;;;;;0.67;0.67;;;;;15.00;95781.00;;;;5036360;28;20223;-58
2023/09/19 03:02:49;;;;;;;2.00;1.03;;;;;15.00;95775.00;;;;5054549;28;20242;-59
2023/09/19 03:05:17;;;;;;;0.50;0.50;;;;;15.10;95774.00;;;;5054536;28;20303;-58
2023/09/19 03:07:45;;;;;;;0.63;0.63;;;;;15.20;95780.00;;;;5053888;28;20195;-58
2023/09/19 03:10:15;;;;;;;0.60;0.60;;;;;15.20;95795.00;;;;5054253;28;20212;-57
2023/09/19 03:12:43;;;;;;;0.40;0.40;;;;;15.30;95780.00;;;;5053851;28;20196;-58
2023/09/19 03:15:11;;;;;;;0.53;0.53;;;;;15.20;95783.00;;;;5053771;28;20311;-57
2023/09/19 03:17:38;;;;;;;0.50;0.50;;;;;15.20;95791.00;;;;5053974;28;20295;-58
2023/09/19 03:20:08;;;;;;;0.53;0.53;;;;;15.20;95794.00;;;;5053763;28;20199;-58
2023/09/19 03:22:36;;;;;;;0.70;0.70;;;;;15.10;95787.00;;;;5053761;28;20184;-58
2023/09/19 03:25:07;;;;;;;0.70;0.70;;;;;15.30;95789.00;;;;5053225;28;20720;-58
2023/09/19 03:27:36;;;;;;;0.40;0.40;;;;;15.20;95790.00;;;;5053617;28;20581;-58
2023/09/19 03:30:08;;;;;;;0.70;0.70;;;;;15.20;95785.00;;;;5053343;28;20295;-58
2023/09/19 03:32:36;;;;;;;0.60;0.60;;;;;15.30;95783.00;;;;5053420;28;20271;-58
2023/09/19 03:35:06;;;;;;;0.60;0.60;;;;;15.30;95783.00;;;;5053551;28;20303;-58
2023/09/19 03:37:33;;;;;;;1.57;1.17;;;;;15.20;95781.00;;;;5053270;28;20206;-58
2023/09/19 03:40:04;;;;;;;0.80;0.80;;;;;15.20;95788.00;;;;5053222;28;20200;-58
2023/09/19 03:42:32;;;;;;;0.60;0.60;;;;;15.30;95786.00;;;;5053779;28;20184;-58
2023/09/19 03:45:05;;;;;;;0.70;0.70;;;;;15.50;95786.00;;;;5053695;28;20212;-58
2023/09/19 03:47:33;;;;;;;0.57;0.57;;;;;15.50;95789.00;;;;5053169;28;20191;-58
2023/09/19 03:50:00;;;;;;;0.63;0.63;;;;;15.50;95780.00;;;;5053661;28;20224;-58
2023/09/19 03:52:27;;;;;;;0.70;0.70;;;;;15.50;95778.00;;;;5053167;28;20197;-58
2023/09/19 03:54:55;;;;;;;0.70;0.70;;;;;15.50;95773.00;;;;5052953;28;20227;-57
2023/09/19 03:57:22;;;;;;;2.03;1.00;;;;;15.50;95777.00;;;;5053296;28;20199;-58
2023/09/19 03:59:53;;;;;;;0.60;0.60;;;;;15.50;95776.00;;;;5052895;28;20186;-58
2023/09/19 04:02:23;;;;;;;0.60;0.60;;;;;15.50;95777.00;;;;5053640;28;20259;-58
2023/09/19 04:04:51;;;;;;;0.60;0.60;;;;;15.50;95778.00;;;;5053493;28;20208;-58
2023/09/19 04:07:19;;;;;;;1.03;1.03;;;;;15.50;95772.00;;;;5052905;28;20249;-58
2023/09/19 04:09:46;;;;;;;0.60;0.60;;;;;15.50;95774.00;;;;5055755;28;20226;-57
2023/09/19 04:12:16;;;;;;;0.90;0.90;;;;;15.40;95771.00;;;;5039286;28;20675;-58
2023/09/19 04:14:44;;;;;;;0.60;0.60;;;;;15.40;95774.00;;;;5057524;28;20306;-58
2023/09/19 04:17:12;;;;;;;0.63;0.63;;;;;15.30;95773.00;;;;5057385;28;20219;-58
2023/09/19 04:19:41;;;;;;;0.60;0.60;;;;;15.30;95785.00;;;;5057302;28;20192;-57
2023/09/19 04:22:09;;;;;;;0.50;0.50;;;;;15.30;95780.00;;;;5057297;28;20671;-58
2023/09/19 04:24:37;;;;;;;0.80;0.80;;;;;15.30;95779.00;;;;5057523;28;20237;-58
2023/09/19 04:27:06;;;;;;;0.57;0.57;;;;;15.40;95783.00;;;;5056780;28;20214;-58
2023/09/19 04:29:33;;;;;;;0.50;0.50;;;;;15.40;95790.00;;;;5057320;28;20216;-58
2023/09/19 04:32:00;;;;;;;0.50;0.50;;;;;15.40;95789.00;;;;5056709;28;20254;-58
2023/09/19 04:34:28;;;;;;;0.60;0.60;;;;;15.20;95802.00;;;;5056930;28;20266;-58
2023/09/19 04:37:00;;;;;;;0.77;0.77;;;;;15.20;95805.00;;;;5056900;28;20196;-58
2023/09/19 04:39:28;;;;;;;0.50;0.50;;;;;15.20;95803.00;;;;5057391;28;20262;-58
2023/09/19 04:41:56;;;;;;;0.53;0.53;;;;;15.20;95809.00;;;;5056662;28;20566;-58
2023/09/19 04:44:27;;;;;;;0.77;0.77;;;;;15.10;95813.00;;;;5056354;28;20227;-58
2023/09/19 04:46:59;;;;;;;0.70;0.70;;;;;15.10;95818.00;;;;5056793;28;20544;-58
2023/09/19 04:49:30;;;;;;;0.70;0.70;;;;;15.00;95814.00;;;;5056285;28;20193;-58
2023/09/19 04:51:59;;;;;;;0.60;0.60;;;;;15.00;95825.00;;;;5056795;28;20231;-58
2023/09/19 04:54:27;;;;;;;0.60;0.60;;;;;15.00;95825.00;;;;5056684;28;20698;-58
2023/09/19 04:56:54;;;;;;;0.50;0.50;;;;;15.00;95824.00;;;;5056579;28;20204;-58
2023/09/19 04:59:22;;;;;;;0.63;0.63;;;;;14.90;95825.00;;;;5056237;28;20192;-58
2023/09/19 05:01:50;;;;;;;2.67;0.77;;;;;15.10;95826.00;;;;5056567;28;20571;-58
2023/09/19 05:04:17;;;;;;;0.93;0.93;;;;;15.10;95835.00;;;;5056182;28;20219;-58
2023/09/19 05:06:45;;;;;;;0.50;0.50;;;;;15.10;95831.00;;;;5056277;28;20575;-58
2023/09/19 05:09:15;;;;;;;1.00;1.00;;;;;15.10;95834.00;;;;5056131;28;20196;-58
2023/09/19 05:11:43;;;;;;;0.60;0.60;;;;;15.30;95838.00;;;;5056857;28;20208;-58
2023/09/19 05:14:11;;;;;;;0.40;0.40;;;;;15.10;95835.00;;;;5056343;28;20247;-57
2023/09/19 05:16:40;;;;;;;0.53;0.53;;;;;15.10;95833.00;;;;5055968;28;20214;-57
2023/09/19 05:19:07;;;;;;;0.80;0.80;;;15.90;91.50;15.20;95835.00;;;;5055900;28;20275;-57
2023/09/19 05:21:34;;;;;;;0.40;0.40;;;15.80;90.60;15.10;95842.00;;;;5055296;28;20538;-59
2023/09/19 05:24:01;;;;;;;0.50;0.50;;;15.80;91.00;15.30;95846.00;;;;5054370;28;20196;-58
2023/09/19 05:26:30;;;;;;;0.80;0.80;;;15.90;91.20;15.30;95857.00;;;;5055798;28;20200;-58
2023/09/19 05:28:57;;;;;;;0.50;0.50;;;15.90;91.50;15.20;95853.00;;;;5054358;28;20282;-58
2023/09/19 05:31:25;;;;;;;3.00;0.67;;;15.90;92.00;15.20;95855.00;;;;5055561;28;20682;-58
2023/09/19 05:33:54;;;;;;;0.60;0.60;;;15.90;90.80;15.10;95874.00;;;;5055622;28;20756;-58
2023/09/19 05:36:21;;;;;;;0.80;0.80;;;15.80;90.70;14.90;95871.00;;;;5056007;28;20196;-58
2023/09/19 05:41:24;;;;;;;0.70;0.70;;;15.60;90.80;14.80;95875.00;;;;5427473;22;20262;-61
2023/09/19 05:43:52;;;;;;;0.50;0.50;;;15.40;90.10;14.90;95885.00;;;;5070470;28;20290;-61
2023/09/19 05:46:19;;;;;;;0.60;0.60;;;15.40;91.40;14.80;95887.00;;;;5066108;28;20199;-62
2023/09/19 05:48:49;;;;;;;1.13;1.13;;;15.40;91.40;14.90;95887.00;;;;5070589;28;20214;-66
2023/09/19 05:51:18;;;;;;;0.60;0.60;;;15.50;91.80;14.90;95903.00;;;;5054460;28;20223;-66
2023/09/19 05:53:48;;;;;;;0.47;0.47;;;15.50;92.30;14.90;95901.00;;;;5023010;28;20250;-68
2023/09/19 05:56:15;;;;;;;1.03;0.77;;;15.50;91.20;14.80;95908.00;;;;4959696;28;20236;-65
2023/09/19 05:58:44;;;;;;;0.60;0.60;;;15.50;89.90;14.70;95913.00;;;;4865379;29;20225;-61
2023/09/19 06:01:13;;;;;;;0.60;0.60;;;15.40;89.40;14.80;95912.00;;;;4713545;29;20243;-65
2023/09/19 06:03:40;;;;;;;0.67;0.67;;;15.40;88.20;14.90;95913.00;;;;4639649;30;20227;-62
2023/09/19 06:06:07;;;;;;;0.87;0.87;;;15.30;85.70;14.70;95913.00;;;;4633574;31;20204;-68
2023/09/19 06:08:34;;;;;;;0.40;0.40;;;15.40;86.40;14.80;95922.00;;;;4627664;31;20196;-62
2023/09/19 06:11:09;;;;;;;0.70;0.70;;;15.40;86.60;14.90;95916.00;;;;4629009;31;20234;-65
2023/09/19 06:13:39;;;;;;;0.60;0.60;;;15.50;86.10;14.90;95909.00;;;;4629860;31;20218;-62
2023/09/19 06:16:06;;;;;;;0.60;0.60;;;;;14.80;95918.00;;;;4628060;31;20203;-63
2023/09/19 06:18:34;;;;;;;0.80;0.80;;;15.40;86.70;14.90;95919.00;;;;4627757;31;20847;-63
2023/09/19 06:21:07;;;;;;;0.60;0.60;;;15.50;87.50;14.90;95924.00;;;;4630991;31;20231;-63
2023/09/19 06:23:35;;;;;;;0.83;0.83;;;15.50;88.20;15.10;95928.00;;;;4631370;31;20291;-63
2023/09/19 06:26:03;;;;;;;0.50;0.50;;;15.60;86.30;15.20;95920.00;;;;4630348;31;20299;-62
2023/09/19 06:28:30;;;;;;;0.53;0.53;;;15.60;86.00;15.10;95915.00;;;;4628241;31;20299;-63
2023/09/19 06:30:58;;;;;;;0.50;0.50;;;15.70;85.50;15.20;95911.00;;;;4631210;31;20242;-63
2023/09/19 06:33:25;;;;;;;0.90;0.90;;;15.70;86.50;15.30;95915.00;;;;4630524;31;20204;-64
2023/09/19 06:35:59;;;;;;;0.80;0.80;;;15.80;86.10;15.10;95916.00;;;;4631138;30;20331;-65
2023/09/19 06:38:26;;;;;;;0.60;0.60;;;15.70;99.90;15.00;95926.00;;;;4631071;31;20200;-62
2023/09/19 06:40:54;;;;;;;0.60;0.60;;;15.60;81.70;15.10;95927.00;;;;4630325;31;20235;-62
2023/09/19 06:43:21;;;;;;;0.40;0.40;;;15.70;81.30;15.10;95921.00;;;;4631107;31;20223;-63
2023/09/19 06:45:49;;;;;;;0.77;0.77;;;15.60;81.20;15.20;95926.00;;;;4630426;31;20697;-59
2023/09/19 06:48:16;;;;;;;0.50;0.50;;;15.60;82.20;15.20;95932.00;;;;4631810;31;20203;-60
2023/09/19 06:50:45;;;;;;;0.43;0.43;;;15.70;83.00;15.20;95935.00;;;;4631651;31;20226;-60
2023/09/19 06:53:14;;;;;;;0.60;0.60;;;15.70;82.20;15.00;95926.00;;;;4632658;31;20209;-67
2023/09/19 06:55:43;;;;;;;0.50;0.50;;;15.60;82.20;15.10;95916.00;;;;4632007;31;20681;-59
2023/09/19 06:58:10;;;;;;;0.53;0.53;;;15.60;83.00;15.00;95934.00;;;;4633604;31;20219;-63
2023/09/19 07:00:38;;;;;;;0.60;0.60;;;15.50;84.30;15.20;95931.00;;;;4735554;29;20224;-61
2023/09/19 07:03:10;;;;;;;0.60;0.60;;;15.60;82.80;15.10;95943.00;;;;4816181;29;20211;-62
2023/09/19 07:05:38;;;;;;;0.70;0.70;;;15.60;83.50;14.90;95945.00;;;;4807379;29;20224;-64
2023/09/19 07:08:09;;;;;;;0.63;0.63;;;15.60;83.50;15.10;95951.00;;;;4804013;29;20204;-66
2023/09/19 07:10:40;;;;;;;0.40;0.40;;;15.60;84.20;15.20;95952.00;;;;4806482;29;20709;-68
2023/09/19 07:13:10;;;;;;;0.60;0.60;;;;;15.20;95960.00;;;;4807714;29;20549;-68
2023/09/19 07:15:41;;;;;;;0.60;0.60;;;;;15.00;95959.00;;;;4807423;29;20308;-68
2023/09/19 07:18:10;;;;;;;0.57;0.57;;;;;15.10;95957.00;;;;4818565;29;20221;-68
2023/09/19 07:20:38;;;;;;;0.53;0.53;;;15.60;82.90;15.20;95958.00;;;;4804297;29;20221;-68
2023/09/19 07:23:06;;;;;;;0.70;0.70;;;15.70;83.20;15.20;95954.00;;;;4806829;29;20250;-69
2023/09/19 07:25:33;;;;;;;0.50;0.50;;;15.70;82.90;15.30;95956.00;;;;4808418;29;20201;-69
2023/09/19 07:28:01;;;;;;;0.70;0.70;;;15.80;82.40;15.40;95958.00;;;;4822192;29;20212;-69
2023/09/19 07:30:30;;;;;;;0.60;0.60;;;16.00;80.20;15.50;95975.00;;;;4807682;29;20288;-69
2023/09/19 07:32:57;;;;;;;0.70;0.70;;;;;15.50;95965.00;;;;4808511;29;20224;-69
2023/09/19 07:35:27;;;;;;;0.57;0.57;;;16.10;79.30;15.50;95967.00;;;;4807915;29;20668;-69
2023/09/19 07:37:56;;;;;;;0.60;0.60;;;16.10;80.00;15.50;95971.00;;;;4807306;29;20209;-69
2023/09/19 07:40:23;;;;;;;0.50;0.50;;;16.00;79.20;15.50;95979.00;;;;4808033;29;20700;-69
2023/09/19 07:42:50;;;;;;;0.50;0.50;;;16.10;78.90;15.80;95971.00;;;;4806753;29;20763;-69
2023/09/19 07:45:20;;;;;;;0.53;0.53;;;16.30;77.80;15.90;95977.00;;;;4821410;29;20219;-69
2023/09/19 07:47:49;;;;;;;1.00;1.00;;;16.40;79.50;16.10;95975.00;;;;4803168;29;20203;-69
2023/09/19 07:50:18;;;;;;;0.90;0.90;;;16.50;77.90;16.20;95978.00;;;;4807615;29;20311;-69
2023/09/19 07:52:45;;;;;;;0.60;0.60;;;16.70;77.90;16.30;95976.00;;;;4804138;29;20297;-69
2023/09/19 07:55:16;;;;;;;1.20;1.20;;;16.80;74.90;16.50;95982.00;;;;4807964;29;20216;-69
2023/09/19 07:57:43;;;;;;;0.50;0.50;;;16.80;75.30;16.50;95982.00;;;;4807018;29;20252;-69
2023/09/19 08:00:16;;;;;;;0.50;0.50;;;16.90;77.60;16.80;95991.00;;;;4793172;29;1062023;-69
2023/09/19 08:02:45;;;;;;;0.53;0.53;;;17.20;76.30;16.60;95986.00;;;;4953507;28;20695;-69
2023/09/19 08:05:15;;;;;;;1.20;0.97;;;16.90;78.20;16.30;95992.00;;;;4962154;28;20194;-69
2023/09/19 08:07:45;;;;;;;0.73;0.73;;;16.90;74.10;16.30;95999.00;;;;4963169;28;20273;-69
2023/09/19 08:10:15;;;;;;;0.60;0.60;;;16.80;73.40;16.10;95999.00;;;;4963790;28;20571;-69
2023/09/19 08:12:46;;;;;;;0.60;0.60;;;16.80;77.20;16.30;96012.00;;;;4949210;28;20219;-69
2023/09/19 08:15:14;;;;;;;0.60;0.60;;;16.70;76.10;16.20;96012.00;;;;4960826;28;20294;-69
2023/09/19 08:17:42;;;;;;;0.50;0.50;;;16.70;76.00;16.40;96004.00;;;;4965881;28;20207;-70
2023/09/19 08:20:16;;;;;;;0.53;0.53;;;16.80;75.70;16.20;96017.00;;;;4969317;28;20219;-70
2023/09/19 08:22:47;;;;;;;0.50;0.50;;;16.70;73.80;16.20;96017.00;;;;4958186;28;20183;-69
2023/09/19 08:25:18;;;;;;;0.50;0.50;;;16.80;72.40;16.30;96022.00;;;;4970269;28;20191;-69
2023/09/19 08:27:47;;;;;;;0.60;0.60;;;16.80;72.80;16.30;96026.00;;;;4965134;28;20186;-69
2023/09/19 08:30:16;;;;;;;0.60;0.60;;;16.80;74.60;16.30;96027.00;;;;4969614;28;20207;-69
2023/09/19 08:32:46;;;;;;;0.57;0.57;;;16.70;72.90;16.40;96018.00;;;;4968067;28;20237;-69
2023/09/19 08:35:15;;;;;;;0.77;0.60;;;16.80;72.20;16.60;96020.00;;;;4961893;28;20194;-69
2023/09/19 08:37:45;;;;;;;0.80;0.80;;;17.00;70.70;16.70;96015.00;;;;4958759;28;20191;-69
2023/09/19 08:40:13;;;;;;;0.63;0.63;;;17.10;73.20;17.10;96012.00;;;;4955365;28;20563;-69
2023/09/19 08:42:50;;;;;;;0.77;0.77;;;;;17.00;96040.00;;;;4958636;28;20206;-69
2023/09/19 08:45:18;;;;;;;0.77;0.77;;;;;16.90;96031.00;;;;4969581;28;20217;-69
2023/09/19 08:47:54;;;;;;;0.97;0.97;;;;;16.80;96030.00;;;;4973068;28;20199;-70
2023/09/19 08:50:29;;;;;;;0.50;0.50;;;;;17.10;96035.00;;;;4959527;28;20222;-70
2023/09/19 08:53:01;;;;;;;0.50;0.50;;;;;16.80;96058.00;;;;4965477;28;20207;-69
2023/09/19 08:55:29;;;;;;;0.70;0.70;;;;;16.70;96044.00;;;;4964700;28;20206;-69
2023/09/19 08:58:02;;;;;;;0.50;0.50;;;;;16.60;96055.00;;;;4963144;28;20234;-69
2023/09/19 09:00:32;;;;;;;0.50;0.50;;;;;16.70;96050.00;;;;4952439;28;20324;-69
2023/09/19 09:03:03;;;;;;;0.70;0.70;;;17.10;64.00;16.90;96028.00;;;;5027251;28;20228;-69
2023/09/19 09:05:36;;;;;;;0.63;0.63;;;;;16.90;96044.00;;;;5017519;28;20268;-69
2023/09/19 09:08:07;;;;;;;0.77;0.77;;;17.40;62.30;16.90;96054.00;;;;5030932;28;20189;-70
2023/09/19 09:10:34;;;;;;;0.60;0.60;;;17.30;62.10;16.70;96051.00;;;;5022363;28;20268;-70
2023/09/19 09:13:06;;;;;;;0.60;0.60;;;17.30;63.30;17.20;96048.00;;;;5035776;28;20220;-70
2023/09/19 09:15:37;;;;;;;0.60;0.60;;;17.30;61.30;16.90;96063.00;;;;5028125;28;20303;-68
2023/09/19 09:18:05;;;;;;;1.23;1.23;;;17.30;76.70;16.80;96046.00;;;;5021205;28;20536;-62
2023/09/19 09:20:34;;;;;;;0.50;0.50;;;17.40;70.30;16.90;96062.00;;;;5034149;28;20210;-62
2023/09/19 09:23:03;;;;;;;2.13;1.13;;;17.40;60.50;17.00;96061.00;;;;5030778;28;20205;-63
2023/09/19 09:25:50;;;;;;;0.53;0.53;;;17.60;62.90;17.10;96050.00;;;;5018018;28;20247;-62
2023/09/19 09:28:21;;;;;;;6.27;1.17;;;17.60;60.00;17.30;96049.00;;;;5034271;28;20205;-62
2023/09/19 09:30:50;;;;;;;0.40;0.40;;;17.60;59.00;17.30;96044.00;;;;5026899;28;20316;-63
2023/09/19 09:33:18;;;;;;;0.50;0.50;;;17.70;61.60;17.60;96039.00;;;;5014317;28;20210;-63
2023/09/19 09:35:56;;;;;;;0.60;0.60;;;17.90;62.70;17.60;96071.00;;;;5014517;28;20202;-62
2023/09/19 09:38:27;;;;;;;0.40;0.40;;;;;17.40;96051.00;;;;5018549;28;20237;-63
2023/09/19 09:41:01;;;;;;;0.40;0.40;;;17.70;59.40;17.10;96060.00;;;;5033550;28;20220;-63
2023/09/19 09:43:35;;;;;;;0.80;0.80;;;;;17.00;96059.00;;;;5024764;28;20204;-63
2023/09/19 09:49:16;;;;;;;0.40;0.40;;;17.70;61.00;17.40;96056.00;;;;5033530;28;20219;-63
2023/09/19 09:51:48;;;;;;;1.00;1.00;;;17.90;59.70;17.40;96058.00;;;;5020691;28;20252;-63
2023/09/19 09:54:19;;;;;;;0.57;0.57;;;17.80;59.60;17.30;96063.00;;;;5013706;28;20514;-62
2023/09/19 09:56:58;;;;;;;0.40;0.40;;;;;17.10;96065.00;;;;5013505;28;20196;-62
2023/09/19 09:59:50;;;;;;;0.47;0.47;;;17.90;59.70;17.60;96064.00;;;;5012762;28;20213;-62
2023/09/19 10:02:25;;;;;;;0.80;0.80;;;17.90;60.30;17.80;96050.00;;;;5008296;28;20238;-63
2023/09/19 10:04:59;;;;;;;0.50;0.50;;;18.20;59.50;17.90;96059.00;;;;5023794;28;20195;-63
2023/09/19 10:07:35;;;;;;;0.70;0.70;;;18.30;58.80;17.90;96056.00;;;;5009406;28;20249;-63
2023/09/19 10:10:15;;;;;;;0.97;0.97;;;18.30;57.50;17.90;96057.00;;;;5013498;28;20217;-63
2023/09/19 10:12:47;;;;;;;0.40;0.40;;;;;17.90;96056.00;;;;5028256;28;20208;-62
2023/09/19 10:15:20;;;;;;;1.10;1.10;;;;;17.80;96059.00;;;;5032886;28;20192;-62
2023/09/19 10:17:48;;;;;;;0.60;0.60;;;18.40;54.10;17.90;96060.00;;;;5033152;28;20189;-62
2023/09/19 10:20:27;;;;;;;0.57;0.57;;;18.30;54.10;18.10;96036.00;;;;5027444;28;20214;-62
2023/09/19 10:22:57;;;;;;;0.70;0.70;;;18.70;50.10;18.20;96062.00;;;;5010661;28;20188;-62
2023/09/19 10:25:30;;;;;;;0.60;0.60;;;;;17.50;96056.00;;;;5020718;28;20192;-62
2023/09/19 10:28:02;;;;;;;0.50;0.50;;;;;17.70;96081.00;;;;5033109;28;20197;-62
2023/09/19 10:30:32;;;;;;;5.00;0.80;;;;;17.50;96059.00;;;;5025704;28;20221;-62
2023/09/19 10:33:03;;;;;;;1.33;1.03;;;;;17.40;96064.00;;;;5022040;28;20223;-66
2023/09/19 10:35:33;;;;;;;0.60;0.60;;;;;17.50;96054.00;;;;5031195;28;20235;-64
2023/09/19 10:38:05;;;;;;;0.63;0.63;;;;;17.80;96056.00;;;;5008542;28;20197;-63
2023/09/19 10:40:36;;;;;;;0.57;0.57;;;;;17.60;96058.00;;;;5028469;28;20229;-63
2023/09/19 10:43:05;;;;;;;0.60;0.60;;;18.10;46.60;17.70;96060.00;;;;5032983;28;20199;-63
2023/09/19 10:45:34;;;;;;;0.50;0.50;;;;;17.50;96064.00;;;;5032025;28;20200;-65
2023/09/19 10:48:04;;;;;;;0.60;0.60;;;;;17.70;96060.00;;;;5026403;28;20205;-65
2023/09/19 10:50:36;;;;;;;0.50;0.50;;;18.20;48.00;18.00;96057.00;;;;5012263;28;20221;-66
2023/09/19 10:53:08;;;;;;;0.50;0.50;;;;;17.90;96043.00;;;;5012889;28;20211;-64
2023/09/19 10:55:36;;;;;;;0.40;0.40;;;;;18.20;96030.00;;;;5012154;28;20193;-64
2023/09/19 10:58:14;;;;;;;0.80;0.80;;;;;18.40;96050.00;;;;5013085;28;20200;-66
2023/09/19 11:00:56;;;;;;;0.57;0.57;;;;;18.40;96048.00;;;;4990499;28;20225;-62
2023/09/19 11:03:30;;;;;;;0.70;0.70;;;;;18.60;96052.00;;;;5016130;28;20251;-62
2023/09/19 11:06:09;;;;;;;0.40;0.40;;;;;18.50;96057.00;;;;5005043;28;20248;-62
2023/09/19 11:09:02;;;;;;;0.80;0.80;;;;;18.40;96060.00;;;;5032309;28;20221;-61
2023/09/19 11:12:00;;;;;;;0.80;0.80;;;;;18.50;96049.00;;;;5022624;28;20298;-62
2023/09/19 11:14:30;;;;;;;0.57;0.57;;;;;18.30;96042.00;;;;5029337;28;20199;-62
2023/09/19 11:17:42;;;;;;;0.50;0.50;;;;;18.80;96047.00;;;;5012883;28;20204;-62
2023/09/19 11:20:35;;;;;;;0.90;0.90;;;;;18.30;96047.00;;;;5011549;28;20229;-62
2023/09/19 11:23:30;;;;;;;0.50;0.50;;;;;18.70;96022.00;;;;5012351;28;20219;-62
2023/09/19 11:25:59;;;;;;;0.50;0.50;;;;;19.10;96015.00;;;;5012028;28;20193;-62
2023/09/19 11:28:33;;;;;;;0.60;0.60;;;;;19.30;96024.00;;;;5012573;28;20205;-62
2023/09/19 11:31:21;;;;;;;0.63;0.63;;;;;19.10;96015.00;;;;5012251;28;20255;-62
2023/09/19 11:33:49;;;;;;;0.60;0.60;;;;;19.40;96032.00;;;;5012319;28;20217;-62
2023/09/19 11:36:18;;;;;;;0.40;0.40;;;;;19.50;96030.00;;;;5011791;28;20193;-62
2023/09/19 11:39:14;;;;;;;0.47;0.47;;;;;19.50;96020.00;;;;5012298;28;20504;-62
2023/09/19 11:41:44;;;;;;;0.40;0.40;;;;;19.80;96023.00;;;;5005136;28;20743;-62
2023/09/19 11:44:38;;;;;;;0.47;0.47;;;;;19.30;96015.00;;;;5012332;28;20194;-62
2023/09/19 11:47:09;;;;;;;0.80;0.80;;;;;19.70;96020.00;;;;5027172;28;20193;-62
2023/09/19 11:49:41;;;;;;;0.60;0.60;;;;;19.60;96009.00;;;;5026611;28;20272;-62
2023/09/19 11:52:09;;;;;;;0.97;0.97;;;;;20.30;96009.00;;;;5026831;28;20201;-62
2023/09/19 11:54:41;;;;;;;0.50;0.50;;;;;21.10;95996.00;;;;5021175;28;20207;-62
2023/09/19 11:57:10;;;;;;;0.50;0.50;;;;;21.40;95998.00;;;;5011994;28;20653;-62
2023/09/19 11:59:40;;;;;;;0.63;0.63;;;;;20.50;95993.00;;;;5003496;28;20209;-62
2023/09/19 12:02:10;;;;;;;0.40;0.40;;;;;20.60;95996.00;;;;5011320;28;20197;-62
2023/09/19 12:04:39;;;;;;;0.50;0.50;;;;;20.90;95989.00;;;;5012015;28;20212;-62
2023/09/19 12:07:12;;;;;;;0.40;0.40;;;;;21.20;96005.00;;;;5011022;28;20197;-62
2023/09/19 12:09:43;;;;;;;0.40;0.40;;;;;20.90;95980.00;;;;5009825;28;20281;-62